createdAt,value
2023-04-21T00:00:50.234Z,8.31
2023-04-21T00:04:38.531Z,8.29
2023-04-21T00:08:28.547Z,8.29
2023-04-21T00:12:17.486Z,8.29
2023-04-21T00:16:06.889Z,8.29
2023-04-21T00:19:54.708Z,8.29
2023-04-21T00:23:42.883Z,8.28
2023-04-21T00:27:32.447Z,8.26
2023-04-21T00:31:20.269Z,8.25
2023-04-21T00:35:08.443Z,8.24
2023-04-21T00:39:10.107Z,8.22
2023-04-21T00:42:57.930Z,8.23
2023-04-21T00:46:31.022Z,8.25
2023-04-21T00:50:11.705Z,8.25
2023-04-21T00:53:56.009Z,8.28
2023-04-21T00:57:13.169Z,8.31
2023-04-21T01:00:50.217Z,8.32
2023-04-21T01:04:28.216Z,8.31
2023-04-21T01:08:54.898Z,8.29
2023-04-21T01:12:42.678Z,8.28
2023-04-21T01:16:30.926Z,8.27
2023-04-21T01:20:18.762Z,8.28
2023-04-21T01:24:06.728Z,8.27
2023-04-21T01:27:54.509Z,8.29
2023-04-21T01:31:42.392Z,8.30
2023-04-21T01:35:32.525Z,8.29
2023-04-21T01:39:23.558Z,8.28
2023-04-21T01:43:16.050Z,8.26
2023-04-21T01:47:05.962Z,8.23
2023-04-21T01:50:53.898Z,8.23
2023-04-21T01:54:41.686Z,8.24
2023-04-21T01:58:29.619Z,8.24
2023-04-21T02:02:17.526Z,8.25
2023-04-21T02:06:05.603Z,8.27
2023-04-21T02:09:54.362Z,8.26
2023-04-21T02:13:42.485Z,8.24
2023-04-21T02:17:30.342Z,8.21
2023-04-21T02:21:18.253Z,8.22
2023-04-21T02:25:06.231Z,8.24
2023-04-21T02:28:36.654Z,8.23
2023-04-21T02:32:27.764Z,8.24
2023-04-21T02:36:15.595Z,8.24
2023-04-21T02:40:03.454Z,8.22
2023-04-21T02:43:51.282Z,8.18
2023-04-21T02:47:47.884Z,8.13
2023-04-21T02:51:36.978Z,8.10
2023-04-21T02:55:24.860Z,8.11
2023-04-21T02:59:12.668Z,8.10
2023-04-21T03:03:00.707Z,8.10
2023-04-21T03:06:55.387Z,8.10
2023-04-21T03:10:43.621Z,8.07
2023-04-21T03:14:37.354Z,8.05
2023-04-21T03:18:25.669Z,8.03
2023-04-21T03:22:18.543Z,8.02
2023-04-21T03:26:06.549Z,8.03
2023-04-21T03:29:54.393Z,8.05
2023-04-21T03:33:52.125Z,8.07
2023-04-21T03:37:40.076Z,8.06
2023-04-21T03:41:27.917Z,8.07
2023-04-21T03:45:19.320Z,8.07
2023-04-21T03:49:07.119Z,8.07
2023-04-21T03:52:57.169Z,8.10
2023-04-21T03:56:37.644Z,8.13
2023-04-21T04:00:33.220Z,8.15
2023-04-21T04:04:23.416Z,8.18
2023-04-21T04:08:11.500Z,8.19
2023-04-21T04:10:51.750Z,8.21
2023-04-21T04:14:39.998Z,8.23
2023-04-21T04:18:27.844Z,8.27
2023-04-21T04:22:18.821Z,8.31
2023-04-21T04:26:06.850Z,8.37
2023-04-21T04:30:00.221Z,8.42
2023-04-21T04:33:48.128Z,8.47
2023-04-21T04:36:56.760Z,8.52
2023-04-21T04:40:44.769Z,8.57
2023-04-21T04:44:07.232Z,8.61
2023-04-21T04:47:25.292Z,8.62
2023-04-21T04:51:06.153Z,8.65
2023-04-21T04:54:43.952Z,8.70
2023-04-21T04:57:57.990Z,8.77
2023-04-21T05:01:50.744Z,8.82
2023-04-21T05:05:22.795Z,8.86
2023-04-21T05:09:10.725Z,8.91
2023-04-21T05:12:58.492Z,8.92
2023-04-21T05:16:48.064Z,8.90
2023-04-21T05:20:36.012Z,8.90
2023-04-21T05:24:23.811Z,8.91
2023-04-21T05:28:11.810Z,8.90
2023-04-21T05:31:59.657Z,8.89
2023-04-21T05:35:47.770Z,8.91
2023-04-21T05:39:35.960Z,8.98
2023-04-21T05:43:23.804Z,9.03
2023-04-21T05:47:11.721Z,9.13
2023-04-21T05:50:59.599Z,9.23
2023-04-21T05:54:47.567Z,9.35
2023-04-21T05:58:35.814Z,9.50
2023-04-21T06:02:23.843Z,9.72
2023-04-21T06:06:11.840Z,9.91
2023-04-21T06:09:45.477Z,10.00
2023-04-21T06:12:48.774Z,10.02
2023-04-21T06:16:09.359Z,10.01
2023-04-21T06:19:03.409Z,10.01
2023-04-21T06:22:40.457Z,10.02
2023-04-21T06:26:18.473Z,10.03
2023-04-21T06:30:06.231Z,10.04
2023-04-21T06:33:23.190Z,10.08
2023-04-21T06:36:53.592Z,10.13
2023-04-21T06:40:16.756Z,10.20
2023-04-21T06:43:37.171Z,10.34
2023-04-21T06:46:51.231Z,10.47
2023-04-21T06:50:03.743Z,10.62
2023-04-21T06:53:23.459Z,10.83
2023-04-21T06:56:31.146Z,11.06
2023-04-21T06:59:59.636Z,11.32
2023-04-21T07:03:19.060Z,11.61
2023-04-21T07:06:54.616Z,11.89
2023-04-21T07:10:32.255Z,12.12
2023-04-21T07:13:47.216Z,12.31
2023-04-21T07:17:02.092Z,12.52
2023-04-21T07:20:38.169Z,12.80
2023-04-21T07:24:16.496Z,13.02
2023-04-21T07:28:04.557Z,13.16
2023-04-21T07:31:52.309Z,13.20
2023-04-21T07:35:40.549Z,13.17
2023-04-21T07:39:28.494Z,13.16
2023-04-21T07:43:16.261Z,13.16
2023-04-21T07:47:04.063Z,13.20
2023-04-21T07:50:52.773Z,13.30
2023-04-21T07:54:40.558Z,13.37
2023-04-21T07:58:29.274Z,13.39
2023-04-21T08:02:01.892Z,13.41
2023-04-21T08:05:43.460Z,13.39
2023-04-21T08:09:31.409Z,13.37
2023-04-21T08:13:19.496Z,13.32
2023-04-21T08:17:00.620Z,13.29
2023-04-21T08:20:39.416Z,13.23
2023-04-21T08:24:33.262Z,13.17
2023-04-21T08:28:20.394Z,13.15
2023-04-21T08:32:08.385Z,13.10
2023-04-21T08:39:55.298Z,13.11
2023-04-21T08:43:35.688Z,13.16
2023-04-21T08:47:24.377Z,13.22
2023-04-21T08:51:14.298Z,13.24
2023-04-21T08:54:55.251Z,13.25
2023-04-21T08:58:45.719Z,13.28
2023-04-21T09:02:46.207Z,13.33
2023-04-21T09:06:37.114Z,13.40
2023-04-21T09:10:31.343Z,13.43
2023-04-21T09:13:59.245Z,13.38
2023-04-21T09:17:47.235Z,13.36
2023-04-21T09:21:50.351Z,13.36
2023-04-21T09:25:38.313Z,13.41
2023-04-21T09:29:27.568Z,13.34
2023-04-21T09:33:29.074Z,13.24
2023-04-21T09:37:19.186Z,13.14
2023-04-21T09:41:12.274Z,13.09
2023-04-21T09:48:57.418Z,13.14
2023-04-21T09:52:45.228Z,13.15
2023-04-21T09:56:33.313Z,13.12
2023-04-21T10:00:23.222Z,13.02
2023-04-21T10:04:11.285Z,12.90
2023-04-21T10:08:00.384Z,12.82
2023-04-21T10:11:50.319Z,12.70
2023-04-21T10:15:39.484Z,12.56
2023-04-21T10:19:27.369Z,12.39
2023-04-21T10:23:15.247Z,12.27
2023-04-21T10:27:03.080Z,12.21
2023-04-21T10:31:01.807Z,12.20
2023-04-21T10:35:12.631Z,12.21
2023-04-21T10:39:19.105Z,12.35
2023-04-21T10:43:15.959Z,12.60
2023-04-21T10:47:17.833Z,12.85
2023-04-21T10:51:14.809Z,13.05
2023-04-21T10:55:07.247Z,13.18
2023-04-21T10:58:55.396Z,13.16
2023-04-21T11:02:53.853Z,13.07
2023-04-21T11:06:41.808Z,12.90
2023-04-21T11:10:30.761Z,12.81
2023-04-21T11:14:22.664Z,12.90
2023-04-21T11:18:10.955Z,13.02
2023-04-21T11:21:58.847Z,13.10
2023-04-21T11:25:48.871Z,13.21
2023-04-21T11:29:41.724Z,13.36
2023-04-21T11:33:35.719Z,13.53
2023-04-21T11:37:23.544Z,13.67
2023-04-21T11:41:11.553Z,13.81
2023-04-21T11:45:14.465Z,13.95
2023-04-21T11:49:17.533Z,14.01
2023-04-21T11:53:05.331Z,14.04
2023-04-21T11:56:53.130Z,13.97
2023-04-21T12:00:41.052Z,13.96
2023-04-21T12:04:35.144Z,14.04
2023-04-21T12:08:23.208Z,14.10
2023-04-21T12:12:10.882Z,14.16
2023-04-21T12:15:58.750Z,14.28
2023-04-21T12:19:46.946Z,14.39
2023-04-21T12:23:37.559Z,14.53
2023-04-21T12:27:17.880Z,14.67
2023-04-21T12:31:05.893Z,14.80
2023-04-21T12:34:53.881Z,14.91
2023-04-21T12:38:41.889Z,15.06
2023-04-21T12:42:29.814Z,15.21
2023-04-21T12:46:19.108Z,15.39
2023-04-21T12:50:06.903Z,15.48
2023-04-21T12:54:00.761Z,15.56
2023-04-21T12:57:48.627Z,15.70
2023-04-21T13:01:37.922Z,15.81
2023-04-21T13:05:16.851Z,15.85
2023-04-21T13:09:02.388Z,15.81
2023-04-21T13:12:49.118Z,15.76
2023-04-21T13:16:37.231Z,15.65
2023-04-21T13:20:25.163Z,15.54
2023-04-21T13:24:21.572Z,15.43
2023-04-21T13:28:15.167Z,15.35
2023-04-21T13:32:02.948Z,15.29
2023-04-21T13:35:51.409Z,15.27
2023-04-21T13:39:39.285Z,15.28
2023-04-21T13:43:29.817Z,15.22
2023-04-21T13:47:16.629Z,15.11
2023-04-21T13:51:04.570Z,14.97
2023-04-21T13:54:53.530Z,14.88
2023-04-21T13:58:41.423Z,14.86
2023-04-21T14:02:29.868Z,14.85
2023-04-21T14:06:11.036Z,14.86
2023-04-21T14:09:59.093Z,14.89
2023-04-21T14:13:59.900Z,14.96
2023-04-21T14:17:52.905Z,15.02
2023-04-21T14:21:42.323Z,15.07
2023-04-21T14:25:30.254Z,15.08
2023-04-21T14:29:11.283Z,15.00
2023-04-21T14:32:59.117Z,14.85
2023-04-21T14:36:38.524Z,14.64
2023-04-21T14:40:26.434Z,14.54
2023-04-21T14:44:22.746Z,14.48
2023-04-21T14:48:10.728Z,14.39
2023-04-21T14:51:59.527Z,14.34
2023-04-21T14:55:47.505Z,14.30
2023-04-21T14:59:26.040Z,14.22
2023-04-21T15:03:14.003Z,14.16
2023-04-21T15:07:02.089Z,14.06
2023-04-21T15:10:51.380Z,13.97
2023-04-21T15:14:39.451Z,13.90
2023-04-21T15:18:27.198Z,13.78
2023-04-21T15:22:15.037Z,13.61
2023-04-21T15:26:02.901Z,13.44
2023-04-21T15:29:50.887Z,13.28
2023-04-21T15:33:38.986Z,13.17
2023-04-21T15:37:26.798Z,13.07
2023-04-21T15:41:14.676Z,12.98
2023-04-21T15:44:54.588Z,12.97
2023-04-21T15:48:42.636Z,13.00
2023-04-21T15:52:30.575Z,12.98
2023-04-21T15:56:12.119Z,12.91
2023-04-21T15:59:51.837Z,12.90
2023-04-21T16:03:40.698Z,12.93
2023-04-21T16:07:28.737Z,12.95
2023-04-21T16:11:17.210Z,12.95
2023-04-21T16:14:55.681Z,12.93
2023-04-21T16:18:47.422Z,12.93
2023-04-21T16:22:35.397Z,12.91
2023-04-21T16:25:32.452Z,12.89
2023-04-21T16:29:00.414Z,12.87
2023-04-21T16:32:39.890Z,12.81
2023-04-21T16:36:24.900Z,12.74
2023-04-21T16:40:12.743Z,12.68
2023-04-21T16:44:00.583Z,12.61
2023-04-21T16:47:48.901Z,12.57
2023-04-21T16:51:37.129Z,12.54
2023-04-21T16:55:25.260Z,12.47
2023-04-21T16:59:13.132Z,12.40
2023-04-21T17:03:01.183Z,12.36
2023-04-21T17:06:49.189Z,12.32
2023-04-21T17:10:29.781Z,12.23
2023-04-21T17:13:38.690Z,12.18
2023-04-21T17:17:11.486Z,12.17
2023-04-21T17:21:01.992Z,12.17
2023-04-21T17:24:53.831Z,12.16
2023-04-21T17:28:42.464Z,12.15
2023-04-21T17:32:19.606Z,12.14
2023-04-21T17:36:07.279Z,12.13
2023-04-21T17:39:55.114Z,12.10
2023-04-21T17:43:42.943Z,12.07
2023-04-21T17:47:30.630Z,12.02
2023-04-21T17:51:11.258Z,11.93
2023-04-21T17:54:59.074Z,11.81
2023-04-21T17:58:47.010Z,11.69
2023-04-21T18:02:33.262Z,11.66
2023-04-21T18:06:22.204Z,11.65
2023-04-21T18:09:46.542Z,11.62
2023-04-21T18:13:34.451Z,11.62
2023-04-21T18:16:58.420Z,11.61
2023-04-21T18:20:46.717Z,11.59
2023-04-21T18:24:34.806Z,11.58
2023-04-21T18:28:22.749Z,11.57
2023-04-21T18:32:03.748Z,11.56
2023-04-21T18:35:51.813Z,11.55
2023-04-21T18:39:39.737Z,11.54
2023-04-21T18:43:27.670Z,11.52
2023-04-21T18:47:15.785Z,11.51
2023-04-21T18:51:04.103Z,11.49
2023-04-21T18:54:53.084Z,11.48
2023-04-21T18:58:25.628Z,11.47
2023-04-21T19:01:58.839Z,11.46
2023-04-21T19:05:46.711Z,11.45
2023-04-21T19:08:42.837Z,11.44
2023-04-21T19:11:34.123Z,11.39
2023-04-21T19:14:21.956Z,11.36
2023-04-21T19:17:52.162Z,11.36
2023-04-21T19:21:40.165Z,11.38
2023-04-21T19:25:07.110Z,11.40
2023-04-21T19:28:49.164Z,11.42
2023-04-21T19:32:27.078Z,11.38
2023-04-21T19:35:44.812Z,11.33
2023-04-21T19:39:15.219Z,11.29
2023-04-21T19:42:45.988Z,11.28
2023-04-21T19:46:09.114Z,11.27
2023-04-21T19:49:56.947Z,11.23
2023-04-21T19:53:35.692Z,11.21
2023-04-21T19:56:40.178Z,11.20
2023-04-21T19:59:41.234Z,11.18
2023-04-21T20:02:31.292Z,11.15
2023-04-21T20:06:21.504Z,11.11
2023-04-21T20:10:10.137Z,11.06
2023-04-21T20:13:57.993Z,11.03
2023-04-21T20:17:51.455Z,11.01
2023-04-21T20:21:39.257Z,11.01
2023-04-21T20:25:32.971Z,10.99
2023-04-21T20:29:11.197Z,10.95
2023-04-21T20:32:59.085Z,10.90
2023-04-21T20:36:46.927Z,10.86
2023-04-21T20:40:36.107Z,10.84
2023-04-21T20:44:24.652Z,10.80
2023-04-21T20:48:12.429Z,10.75
2023-04-21T20:52:00.198Z,10.74
2023-04-21T20:55:48.390Z,10.74
2023-04-21T20:59:37.741Z,10.74
2023-04-21T21:03:26.228Z,10.75
2023-04-21T21:07:14.177Z,10.75
2023-04-21T21:11:02.023Z,10.72
2023-04-21T21:14:43.158Z,10.70
2023-04-21T21:18:31.241Z,10.66
2023-04-21T21:21:59.041Z,10.63
2023-04-21T21:25:47.091Z,10.62
2023-04-21T21:29:35.034Z,10.59
2023-04-21T21:33:22.974Z,10.58
2023-04-21T21:37:12.084Z,10.59
2023-04-21T21:40:51.310Z,10.60
2023-04-21T21:44:39.142Z,10.59
2023-04-21T21:48:27.026Z,10.51
2023-04-21T21:52:14.804Z,10.44
2023-04-21T21:56:02.589Z,10.37
2023-04-21T21:59:49.244Z,10.35
2023-04-21T22:03:33.526Z,10.36
2023-04-21T22:07:21.437Z,10.37
2023-04-21T22:11:29.128Z,10.34
2023-04-21T22:15:16.880Z,10.32
2023-04-21T22:19:04.648Z,10.31
2023-04-21T22:22:54.477Z,10.29
2023-04-21T22:26:42.221Z,10.26
2023-04-21T22:30:30.096Z,10.24
2023-04-21T22:34:11.729Z,10.24
2023-04-21T22:37:59.599Z,10.24
2023-04-21T22:41:26.756Z,10.23
2023-04-21T22:44:59.838Z,10.18
2023-04-21T22:48:49.045Z,10.13
2023-04-21T22:52:38.258Z,10.05
2023-04-21T22:56:24.925Z,9.99
2023-04-21T23:00:12.823Z,9.94
2023-04-21T23:04:00.819Z,9.90
2023-04-21T23:07:48.761Z,9.86
2023-04-21T23:11:36.767Z,9.82
2023-04-21T23:15:24.680Z,9.79
2023-04-21T23:19:12.528Z,9.76
2023-04-21T23:23:00.270Z,9.72
2023-04-21T23:26:48.077Z,9.62
2023-04-21T23:30:35.833Z,9.52
2023-04-21T23:34:25.055Z,9.46
2023-04-21T23:38:12.813Z,9.40
2023-04-21T23:42:00.668Z,9.37
2023-04-21T23:45:47.498Z,9.35
2023-04-21T23:49:36.452Z,9.29
2023-04-21T23:53:24.673Z,9.19
2023-04-21T23:57:12.561Z,9.06
